Time;durP1;ratioP1;P1;durP2;ratioP2;P2;SDS_P1;SDS_P2;PMS_P1;PMS_P2;Temp;Humidity;BMP_temperature;BMP_pressure;BME280_temperature;BME280_humidity;BME280_pressure;Samples;Min_cycle;Max_cycle;Signal;HPM_P1;HPM_P2
2023/10/05 00:02:23;;;;;;;4.80;3.20;;;;;;;14.09;100.00;100211.63;104329;1257;73696;-61
2023/10/05 00:04:51;;;;;;;5.10;3.00;;;;;;;14.07;100.00;100212.81;104401;1259;69069;-61
2023/10/05 00:07:26;;;;;;;10.20;3.70;;;;;;;14.06;100.00;100215.11;104370;1255;72457;-61
2023/10/05 00:09:57;;;;;;;5.40;3.60;;;;;;;14.04;100.00;100222.63;104336;1270;62311;-63
2023/10/05 00:12:25;;;;;;;4.00;2.90;;;;;;;14.01;100.00;100217.14;104388;1259;60279;-61
2023/10/05 00:15:14;;;;;;;;;;;;;;;14.00;100.00;100219.80;104378;1253;73682;-63
2023/10/05 00:17:42;;;;;;;4.50;3.10;;;;;;;14.01;100.00;100213.05;104256;1258;68345;-61
2023/10/05 00:20:24;;;;;;;;;;;;;;;13.98;100.00;100212.30;104430;1272;71668;-61
2023/10/05 00:22:52;;;;;;;5.10;3.00;;;;;;;13.96;100.00;100213.30;104392;1255;62386;-62
2023/10/05 00:25:23;;;;;;;3.90;3.00;;;;;;;13.98;100.00;100213.23;104382;1272;61990;-61
2023/10/05 00:27:54;;;;;;;3.50;2.90;;;;;;;13.98;100.00;100213.73;104342;1254;74478;-62
2023/10/05 00:30:23;;;;;;;8.20;3.30;;;;;;;13.99;100.00;100212.63;104267;1269;69526;-61
2023/10/05 00:32:59;;;;;;;7.70;3.20;;;;;;;14.01;100.00;100214.46;104314;1266;73343;-61
2023/10/05 00:35:29;;;;;;;3.60;3.20;;;;;;;14.01;100.00;100218.89;104388;1259;61417;-61
2023/10/05 00:38:04;;;;;;;4.40;3.30;;;;;;;13.97;100.00;100224.38;104338;1257;60424;-62
2023/10/05 00:43:07;;;;;;;5.10;3.10;;;;;;;13.89;100.00;100227.74;104281;1258;69273;-60
2023/10/05 00:45:38;;;;;;;6.50;3.30;;;;;;;13.87;100.00;100228.20;104326;1259;71641;-60
2023/10/05 00:48:13;;;;;;;4.70;3.40;;;;;;;13.85;100.00;100225.63;104315;1254;61413;-61
2023/10/05 00:50:43;;;;;;;5.40;3.30;;;;;;;13.85;100.00;100222.82;104423;1256;60562;-65
2023/10/05 00:53:11;;;;;;;7.70;4.30;;;;;;;13.83;100.00;100220.77;104378;1253;73777;-66
2023/10/05 00:55:43;;;;;;;5.10;3.30;;;;;;;13.80;100.00;100222.34;104492;1258;68445;-65
2023/10/05 00:58:14;;;;;;;6.60;3.00;;;;;;;13.78;100.00;100226.67;104278;1254;72340;-65
2023/10/05 01:00:52;;;;;;;5.80;3.70;;;;;;;13.77;100.00;100226.53;104313;1258;60642;-66
2023/10/05 01:03:27;;;;;;;7.00;3.50;;;;;;;13.75;100.00;100231.92;104411;1254;60505;-65
2023/10/05 01:06:12;;;;;;;5.20;3.10;;;;;;;13.81;100.00;100231.46;107925;1255;73640;-66
2023/10/05 01:08:49;;;;;;;4.70;3.20;;;;;;;13.89;100.00;100228.80;106847;1255;69216;-65
2023/10/05 01:11:25;;;;;;;5.50;3.20;;;;;;;13.90;100.00;100233.17;104358;1257;72553;-64
2023/10/05 01:13:58;;;;;;;7.80;3.40;;;;;;;13.93;100.00;100231.24;105072;1254;61426;-64
2023/10/05 01:16:26;;;;;;;5.10;3.20;;;;;;;13.94;100.00;100232.98;104623;1251;60868;-63
2023/10/05 01:18:58;;;;;;;4.90;3.20;;;;;;;13.99;100.00;100233.77;104294;1257;73712;-65
2023/10/05 01:21:26;;;;;;;7.70;3.30;;;;;;;14.02;100.00;100232.44;104408;1253;69242;-65
2023/10/05 01:23:54;;;;;;;8.10;3.60;;;;;;;14.02;100.00;100236.09;104291;1259;71750;-64
2023/10/05 01:26:22;;;;;;;5.50;3.40;;;;;;;14.02;100.00;100235.94;104245;1268;61469;-64
2023/10/05 01:28:50;;;;;;;;;;;;;;;14.03;100.00;100236.42;108441;1252;60375;-64
2023/10/05 01:31:18;;;;;;;6.80;3.20;;;;;;;14.09;100.00;100240.21;108378;1253;73649;-65
2023/10/05 01:33:46;;;;;;;6.60;3.30;;;;;;;14.09;100.00;100246.34;108388;1252;69226;-66
2023/10/05 01:36:18;;;;;;;6.40;3.40;;;;;;;14.08;100.00;100245.52;108365;1251;71460;-65
2023/10/05 01:38:53;;;;;;;7.50;3.50;;;;;;;14.07;100.00;100245.38;108354;1254;61423;-65
2023/10/05 01:41:21;;;;;;;5.00;3.30;;;;;;;14.06;100.00;100246.16;108395;1252;60115;-65
2023/10/05 01:43:49;;;;;;;7.70;3.50;;;;;;;14.04;100.00;100249.10;108254;1252;74505;-66
2023/10/05 01:46:17;;;;;;;;;;;;;;;14.03;100.00;100253.16;108401;1253;69576;-65
2023/10/05 01:48:46;;;;;;;6.90;3.60;;;;;;;14.01;100.00;100258.17;108336;1254;73261;-65
2023/10/05 01:51:19;;;;;;;6.60;3.80;;;;;;;14.02;100.00;100259.17;108190;1253;61971;-65
2023/10/05 01:53:51;;;;;;;5.60;3.00;;;;;;;14.04;100.00;100260.36;108027;1252;60192;-64
2023/10/05 01:56:20;;;;;;;4.80;3.80;;;;;;;14.00;100.00;100259.84;108272;1253;73614;-65
2023/10/05 01:58:54;;;;;;;5.80;4.00;;;;;;;13.97;100.00;100255.73;108050;1253;69132;-64
2023/10/05 02:01:22;;;;;;;6.60;3.30;;;;;;;13.97;100.00;100258.04;108156;1253;73404;-65
2023/10/05 02:03:54;;;;;;;5.60;3.90;;;;;;;13.95;100.00;100252.28;108359;1253;62053;-66
2023/10/05 02:06:22;;;;;;;6.00;4.10;;;;;;;13.90;100.00;100254.84;108372;1252;59520;-66
2023/10/05 02:08:49;;;;;;;5.20;3.60;;;;;;;13.85;100.00;100256.11;108478;1252;74555;-64
2023/10/05 02:11:19;;;;;;;4.70;3.60;;;;;;;13.80;100.00;100252.10;108311;1253;69024;-65
2023/10/05 02:13:51;;;;;;;5.30;3.80;;;;;;;13.79;100.00;100256.93;108179;1253;72724;-65
2023/10/05 02:16:23;;;;;;;6.40;3.80;;;;;;;13.82;100.00;100261.17;108300;1254;60563;-66
2023/10/05 02:18:53;;;;;;;4.10;3.40;;;;;;;13.83;100.00;100263.42;108403;1253;59842;-65
2023/10/05 02:21:31;;;;;;;6.90;4.00;;;;;;;13.86;100.00;100268.04;108381;1251;72577;-64
2023/10/05 02:24:10;;;;;;;8.80;3.40;;;;;;;13.86;100.00;100274.55;108420;1253;69215;-64
2023/10/05 02:29:28;;;;;;;6.40;3.70;;;;;;;13.80;100.00;100278.02;108404;1253;61662;-64
2023/10/05 02:34:40;;;;;;;8.80;3.70;;;;;;;13.83;100.00;100274.73;108418;1253;73800;-65
2023/10/05 02:37:12;;;;;;;6.10;3.20;;;;;;;13.86;100.00;100272.79;108294;1255;69070;-65
2023/10/05 02:39:41;;;;;;;6.60;3.70;;;;;;;13.86;100.00;100269.30;108489;1252;73386;-62
2023/10/05 02:42:12;;;;;;;5.00;3.60;;;;;;;13.86;100.00;100270.52;108407;1252;60822;-61
2023/10/05 02:44:41;;;;;;;7.00;4.10;;;;;;;13.82;100.00;100268.08;108249;1252;62346;-64
2023/10/05 02:47:10;;;;;;;8.20;4.00;;;;;;;13.76;100.00;100269.56;108316;1253;73590;-64
2023/10/05 02:49:44;;;;;;;9.30;4.20;;;;;;;13.70;100.00;100274.06;108287;1252;70879;-63
2023/10/05 02:52:14;;;;;;;4.70;3.90;;;;;;;13.69;100.00;100272.02;108364;1252;72940;-64
2023/10/05 02:54:48;;;;;;;4.00;3.20;;;;;;;13.71;100.00;100271.20;108424;1253;61351;-64
2023/10/05 02:57:20;;;;;;;3.90;3.50;;;;;;;13.73;100.00;100269.71;108394;1252;60146;-64
2023/10/05 02:59:50;;;;;;;9.50;4.00;;;;;;;13.72;100.00;100264.48;108223;1253;73678;-65
2023/10/05 03:02:18;;;;;;;5.10;3.80;;;;;;;13.67;100.00;100262.98;108453;1252;71846;-65
2023/10/05 03:04:57;;;;;;;8.50;3.90;;;;;;;13.60;100.00;100261.33;108253;1253;71493;-66
2023/10/05 03:07:26;;;;;;;6.40;3.70;;;;;;;13.55;100.00;100265.05;108197;1253;61966;-65
2023/10/05 03:09:59;;;;;;;6.20;3.80;;;;;;;13.52;100.00;100270.66;108089;1252;60126;-64
2023/10/05 03:12:32;;;;;;;9.00;4.50;;;;;;;13.48;100.00;100268.55;108278;1253;73846;-64
2023/10/05 03:15:06;;;;;;;5.60;4.20;;;;;;;13.44;100.00;100263.80;107763;1253;69634;-65
2023/10/05 03:17:37;;;;;;;8.70;4.40;;;;;;;13.42;100.00;100263.52;108125;1253;71215;-65
2023/10/05 03:20:09;;;;;;;4.40;3.50;;;;;;;13.35;100.00;100257.13;108171;1252;61448;-65
2023/10/05 03:22:37;;;;;;;7.20;3.90;;;;;;;13.38;100.00;100268.61;108234;1253;60809;-63
2023/10/05 03:25:08;;;;;;;5.30;4.10;;;;;;;13.35;100.00;100275.49;108348;1253;73604;-62
2023/10/05 03:27:36;;;;;;;6.30;3.90;;;;;;;13.32;100.00;100272.77;108434;1253;68628;-65
2023/10/05 03:30:06;;;;;;;6.00;4.10;;;;;;;13.31;100.00;100273.55;108400;1253;72595;-65
2023/10/05 03:32:35;;;;;;;9.60;4.60;;;;;;;13.25;100.00;100274.81;108194;1252;61419;-65
2023/10/05 03:35:04;;;;;;;9.30;4.30;;;;;;;13.21;100.00;100277.08;108189;1254;60051;-63
2023/10/05 03:37:39;;;;;;;4.60;3.50;;;;;;;13.23;100.00;100278.77;108267;1253;74041;-64
2023/10/05 03:40:19;;;;;;;8.80;3.70;;;;;;;13.19;100.00;100277.02;108235;1253;69602;-65
2023/10/05 03:42:50;;;;;;;8.00;4.80;;;;;;;13.16;100.00;100280.66;108252;1252;72757;-64
2023/10/05 03:45:19;;;;;;;7.30;4.40;;;;;;;13.12;100.00;100279.25;108199;1253;61465;-63
2023/10/05 03:47:49;;;;;;;4.60;3.60;;;;;;;13.07;100.00;100278.06;108247;1252;59655;-66
2023/10/05 03:50:17;;;;;;;8.10;4.20;;;;;;;13.03;100.00;100278.03;108150;1253;74049;-63
2023/10/05 03:52:50;;;;;;;5.60;4.00;;;;;;;13.07;100.00;100279.13;108126;1253;69817;-61
2023/10/05 03:55:20;;;;;;;8.80;4.30;;;;;;;13.03;100.00;100261.84;108222;1253;72326;-62
2023/10/05 03:57:51;;;;;;;8.20;4.40;;;;;;;13.07;100.00;100268.38;108006;1251;61736;-62
2023/10/05 04:02:53;;;;;;;5.30;4.50;;;;;;;13.02;100.00;100278.27;108360;1253;73550;-62
2023/10/05 04:05:25;;;;;;;6.50;3.90;;;;;;;13.00;100.00;100274.66;108371;1252;70132;-61
2023/10/05 04:08:07;;;;;;;5.30;3.90;;;;;;;13.00;100.00;100268.84;108359;1253;72348;-63
2023/10/05 04:10:46;;;;;;;5.30;4.30;;;;;;;13.01;100.00;100273.72;108385;1252;62001;-61
2023/10/05 04:13:15;;;;;;;13.40;4.20;;;;;;;13.02;100.00;100273.70;108462;1252;59621;-61
2023/10/05 04:15:43;;;;;;;5.60;4.40;;;;;;;13.00;100.00;100281.33;108478;1252;72473;-64
2023/10/05 04:18:13;;;;;;;6.30;4.10;;;;;;;12.94;100.00;100278.46;108343;1252;69445;-64
2023/10/05 04:20:43;;;;;;;11.40;4.70;;;;;;;12.88;100.00;100288.52;108343;1253;72349;-64
2023/10/05 04:23:16;;;;;;;6.70;4.30;;;;;;;12.91;100.00;100288.08;108495;1252;61476;-68
2023/10/05 04:25:48;;;;;;;6.30;4.50;;;;;;;12.89;100.00;100288.17;108422;1252;59662;-65
2023/10/05 04:28:30;;;;;;;7.70;4.70;;;;;;;12.82;100.00;100295.46;108414;1253;73651;-64
2023/10/05 04:30:58;;;;;;;7.40;4.80;;;;;;;12.82;100.00;100290.53;108424;1253;70544;-64
2023/10/05 04:33:27;;;;;;;;;;;;;;;12.84;100.00;100296.09;108452;1253;73460;-68
2023/10/05 04:35:55;;;;;;;11.60;4.40;;;;;;;12.82;100.00;100302.48;108509;1252;61529;-67
2023/10/05 04:38:25;;;;;;;8.70;4.40;;;;;;;12.79;100.00;100300.52;108413;1253;58646;-66
2023/10/05 04:40:54;;;;;;;7.10;5.00;;;;;;;12.76;100.00;100302.77;108446;1252;73670;-65
2023/10/05 04:43:25;;;;;;;6.60;4.50;;;;;;;12.73;100.00;100304.30;108423;1253;69153;-67
2023/10/05 04:45:52;;;;;;;6.00;4.50;;;;;;;12.76;100.00;100306.09;108379;1253;71501;-63
2023/10/05 04:48:23;;;;;;;9.30;4.20;;;;;;;12.73;100.00;100295.48;108415;1253;61568;-63
2023/10/05 04:50:51;;;;;;;8.50;4.30;;;;;;;12.83;100.00;100304.91;108354;1253;59693;-64
2023/10/05 04:53:20;;;;;;;11.40;4.40;;;;;;;12.86;100.00;100309.03;108399;1251;73559;-64
2023/10/05 04:55:53;;;;;;;8.00;5.10;;;;;;;12.85;100.00;100311.16;108363;1253;68618;-63
2023/10/05 04:58:23;;;;;;;4.80;4.30;;;;;;;12.88;100.00;100307.89;108273;1253;73463;-64
2023/10/05 05:01:15;;;;;;;6.10;5.00;;;;;;;12.90;100.00;100303.77;108402;1253;61677;-64
2023/10/05 05:03:55;;;;;;;10.30;4.40;;;;;;;12.86;100.00;100310.27;108402;1252;61264;-63
2023/10/05 05:06:27;;;;;;;5.90;4.70;;;;;;;12.89;100.00;100311.17;108236;1253;74762;-63
2023/10/05 05:08:55;;;;;;;9.60;4.20;;;;;;;12.90;100.00;100313.60;108040;1253;69737;-63
2023/10/05 05:11:23;;;;;;;7.20;4.40;;;;;;;12.97;100.00;100318.27;108252;1253;72539;-61
2023/10/05 05:13:51;;;;;;;7.10;4.20;;;;;;;13.01;100.00;100314.56;108276;1253;62447;-63
2023/10/05 05:16:19;;;;;;;6.40;4.00;;;;;;;13.06;100.00;100315.05;108255;1253;59830;-63
2023/10/05 05:18:47;;;;;;;;;;;;;;;13.07;100.00;100314.48;108337;1253;73716;-63
2023/10/05 05:21:16;;;;;;;7.70;4.20;;;;;;;13.11;100.00;100317.84;108443;1252;70138;-63
2023/10/05 05:23:46;;;;;;;6.00;4.30;;;;;;;13.13;100.00;100317.94;108363;1255;73295;-63
2023/10/05 05:26:14;;;;;;;7.10;4.10;;;;;;;13.21;100.00;100321.96;108414;1253;61852;-63
2023/10/05 05:28:43;;;;;;;;;;;;;;;13.24;100.00;100321.69;108373;1252;60319;-64
2023/10/05 05:31:14;;;;;;;5.40;4.30;;;;;;;13.27;100.00;100320.67;108380;1253;73669;-63
2023/10/05 05:33:44;;;;;;;9.30;4.90;;;;;;;13.33;100.00;100320.28;108443;1253;69508;-64
2023/10/05 05:36:13;;;;;;;6.40;4.30;;;;;;;13.38;100.00;100320.93;108327;1255;72727;-64
2023/10/05 05:42:13;;;;;;;6.20;3.80;;;;;;;13.57;100.00;100324.16;101386;1295;600806;-64
2023/10/05 05:44:41;;;;;;;13.20;5.00;;;;;;;13.63;100.00;100330.91;103883;1269;61037;-64
2023/10/05 05:47:14;;;;;;;;;;;;;;;13.69;100.00;100333.86;103434;1275;60407;-62
2023/10/05 05:49:46;;;;;;;6.70;4.40;;;;;;;13.72;100.00;100335.46;103521;1273;71822;-63
2023/10/05 05:52:14;;;;;;;10.30;4.20;;;;;;;13.76;100.00;100333.86;103963;1270;70348;-65
2023/10/05 05:54:46;;;;;;;6.50;4.30;;;;;;;13.84;100.00;100334.20;103662;1263;366437;-64
2023/10/05 05:57:19;;;;;;;6.20;4.30;;;;;;;13.89;100.00;100334.36;106902;1264;61498;-60
2023/10/05 05:59:46;;;;;;;9.00;4.10;;;;;;;13.94;100.00;100332.70;106158;1268;59829;-59
2023/10/05 06:02:14;;;;;;;7.80;4.60;;;;;;;14.01;100.00;100333.66;104174;1269;72766;-63
2023/10/05 06:04:42;;;;;;;6.90;4.00;;;;;;;14.10;100.00;100334.62;104017;1268;68785;-60
2023/10/05 06:07:13;;;;;;;8.20;3.80;;;;;;;14.21;100.00;100333.26;104307;1263;72833;-60
2023/10/05 06:09:43;;;;;;;7.30;4.40;;;;;;;14.28;100.00;100333.98;104160;1262;61514;-62
2023/10/05 06:12:12;;;;;;;7.70;4.30;;;;;;;14.35;100.00;100334.14;104651;1261;60635;-62
2023/10/05 06:14:40;;;;;;;8.00;4.40;;;;;;;14.38;100.00;100337.00;104413;1256;72867;-66
2023/10/05 06:17:09;;;;;;;10.90;4.50;;;;;;;14.45;100.00;100342.85;104167;1263;70394;-61
2023/10/05 06:19:37;;;;;;;8.40;3.80;;;;;;;14.55;100.00;100344.16;104923;1260;72819;-62
2023/10/05 06:22:06;;;;;;;10.10;4.10;;;;;;;14.62;100.00;100351.95;104243;1261;60833;-61
2023/10/05 06:24:42;;;;;;;6.30;4.30;;;;;;;14.69;100.00;100350.41;104269;1271;61501;-61
2023/10/05 06:27:11;;;;;;;5.70;3.50;;;;;;;14.74;100.00;100351.70;104341;1260;72242;-62
2023/10/05 06:29:39;;;;;;;7.90;4.10;;;;;;;14.84;100.00;100354.59;104544;1254;70250;-63
2023/10/05 06:32:09;;;;;;;7.00;4.50;;;;;;;14.92;100.00;100354.92;104360;1269;72708;-61
2023/10/05 06:34:37;;;;;;;5.10;3.90;;;;;;;14.97;100.00;100353.96;104341;1257;64156;-61
2023/10/05 06:37:05;;;;;;;7.00;3.60;;;;;;;15.04;100.00;100349.74;104201;1260;60168;-63
2023/10/05 06:39:34;;;;;;;4.90;3.90;;;;;;;15.13;100.00;100352.79;104593;1257;75137;-63
2023/10/05 06:42:02;;;;;;;7.40;4.60;;;;;;;15.20;100.00;100354.02;104663;1263;69514;-61
2023/10/05 06:44:30;;;;;;;7.70;4.30;;;;;;;15.27;100.00;100352.45;104420;1262;71725;-61
2023/10/05 06:47:02;;;;;;;8.00;4.00;;;;;;;15.35;100.00;100354.35;104254;1270;61602;-64
2023/10/05 06:49:30;;;;;;;6.70;3.70;;;;;;;15.44;100.00;100356.36;104288;1271;60088;-60
2023/10/05 06:51:58;;;;;;;;;;;;;;;15.49;100.00;100358.90;104521;1260;73031;-62
2023/10/05 06:54:26;;;;;;;;;;;;;;;15.56;100.00;100361.90;104225;1262;69457;-60
2023/10/05 06:56:55;;;;;;;5.30;3.90;;;;;;;15.63;100.00;100366.50;104494;1269;71515;-63
2023/10/05 06:59:25;;;;;;;7.00;4.50;;;;;;;15.71;100.00;100369.44;104096;1256;64438;-61
2023/10/05 07:01:52;;;;;;;7.90;3.90;;;;;;;15.73;100.00;100367.20;104735;1257;59988;-61
2023/10/05 07:04:24;;;;;;;;;;;;;;;15.80;100.00;100366.20;104234;1256;73883;-62
2023/10/05 07:06:52;;;;;;;8.60;3.90;;;;;;;15.85;100.00;100367.11;104400;1257;70251;-62
2023/10/05 07:11:20;;;;;;;8.00;3.60;;;;;;;15.54;100.00;100367.27;101545;1295;601054;-61
2023/10/05 07:13:48;;;;;;;5.30;3.50;;;;;;;16.09;100.00;100367.62;105275;1270;61505;-62
2023/10/05 07:16:18;;;;;;;5.80;4.10;;;;;;;16.23;100.00;100368.45;106754;1263;59821;-63
2023/10/05 07:18:46;;;;;;;4.80;3.60;;;;;;;16.30;100.00;100366.82;106829;1263;72752;-63
2023/10/05 07:21:14;;;;;;;5.10;3.50;;;;;;;16.41;100.00;100362.73;107592;1257;72018;-62
2023/10/05 07:23:42;;;;;;;;;;;;;;;16.48;100.00;100359.48;104279;1260;73370;-62
2023/10/05 07:26:10;;;;;;;6.10;3.70;;;;;;;16.49;100.00;100359.23;104473;1260;322981;-63
2023/10/05 07:28:38;;;;;;;;;;;;;;;16.59;100.00;100355.50;104359;1266;60008;-62
2023/10/05 07:31:06;;;;;;;7.30;4.10;;;;;;;16.67;100.00;100353.96;104238;1260;71728;-61
2023/10/05 07:33:33;;;;;;;;;;;;;;;16.74;100.00;100354.84;104163;1271;69621;-60
2023/10/05 07:36:02;;;;;;;;;;;;;;;16.81;100.00;100347.55;104383;1269;72689;-61
2023/10/05 07:38:30;;;;;;;8.60;4.00;;;;;;;16.87;100.00;100346.13;104366;1258;61642;-62
2023/10/05 07:40:59;;;;;;;7.30;4.30;;;;;;;16.91;100.00;100347.83;104210;1263;60688;-60
2023/10/05 07:43:32;;;;;;;6.70;4.40;;;;;;;16.94;100.00;100346.13;104407;1264;72161;-61
2023/10/05 07:46:06;;;;;;;8.00;4.60;;;;;;;16.97;100.00;100342.21;104164;1257;70172;-63
2023/10/05 07:48:34;;;;;;;8.00;4.90;;;;;;;17.03;100.00;100341.52;104516;1260;73309;-63
2023/10/05 07:51:02;;;;;;;10.60;6.00;;;;;;;17.11;100.00;100341.58;104200;1263;61609;-63
2023/10/05 07:53:31;;;;;;;12.00;5.50;;;;;;;17.17;100.00;100339.45;104294;1257;59681;-63
2023/10/05 07:55:59;;;;;;;6.50;4.30;;;;;;;17.22;100.00;100338.09;105662;1254;72873;-62
2023/10/05 07:58:26;;;;;;;12.20;5.00;;;;;;;17.25;100.00;100337.88;104632;1257;70367;-61
2023/10/05 08:00:54;;;;;;;;;;;;;;;17.33;100.00;100340.77;107903;1254;72447;-61
2023/10/05 08:03:23;;;;;;;7.20;4.40;;;;;;;17.39;100.00;100338.52;106839;1256;61678;-61
2023/10/05 08:05:51;;;;;;;11.40;4.70;;;;;;;17.43;100.00;100333.27;104272;1260;59750;-61
2023/10/05 08:08:20;;;;;;;6.90;4.00;;;;;;;17.53;100.00;100332.65;107013;1254;72845;-63
2023/10/05 08:10:50;;;;;;;8.30;4.40;;;;;;;17.64;100.00;100328.64;107857;1254;69355;-63
2023/10/05 08:13:19;;;;;;;8.10;3.70;;;;;;;17.74;100.00;100325.20;107802;1254;72481;-61
2023/10/05 08:15:47;;;;;;;8.70;4.00;;;;;;;17.86;100.00;100323.95;106219;1257;62470;-60
2023/10/05 08:18:14;;;;;;;;;;;;;;;17.95;100.00;100324.63;104814;1257;59975;-59
2023/10/05 08:20:42;;;;;;;;;;;;;;;18.04;100.00;100324.05;107539;1256;73527;-60
2023/10/05 08:23:10;;;;;;;7.60;3.90;;;;;;;18.09;100.00;100326.23;106030;1257;70389;-58
2023/10/05 08:25:38;;;;;;;;;;;;;;;18.16;100.00;100318.70;104460;1260;72739;-60
2023/10/05 08:28:09;;;;;;;10.40;4.10;;;;;;;18.20;99.83;100320.39;104497;1260;62025;-60
2023/10/05 08:30:49;;;;;;;6.30;3.40;;;;;;;18.17;97.07;100313.13;104651;1250;59704;-61
2023/10/05 08:33:19;;;;;;;7.80;3.50;;;;;;;18.24;96.57;100308.60;104524;1253;72815;-62
2023/10/05 08:35:48;;;;;;;10.90;4.70;;;;;;;18.27;96.40;100307.89;104363;1257;70223;-62
2023/10/05 08:38:16;;;;;;;6.60;3.50;;;;;;;18.32;95.71;100302.24;104305;1270;73171;-60
2023/10/05 08:40:45;;;;;;;6.20;3.70;;;;;;;18.40;97.73;100299.75;104667;1251;62033;-60
2023/10/05 08:43:16;;;;;;;6.40;4.00;;;;;;;18.51;96.48;100298.86;104247;1270;60613;-62
2023/10/05 08:45:51;;;;;;;5.40;3.50;;;;;;;18.57;94.54;100301.65;104610;1253;72871;-60
2023/10/05 08:48:28;;;;;;;6.30;3.50;;;;;;;18.62;92.80;100297.27;104465;1251;68575;-59
2023/10/05 08:51:16;;;;;;;7.00;4.00;;;;;;;18.65;91.82;100298.13;104696;1253;72516;-61
2023/10/05 08:53:55;;;;;;;7.30;3.50;;;;;;;18.71;89.54;100290.27;104829;1251;63193;-61
2023/10/05 08:56:24;;;;;;;5.20;3.70;;;;;;;18.72;88.63;100291.65;104881;1254;61781;-61
2023/10/05 08:58:52;;;;;;;9.50;3.10;;;;;;;18.77;90.13;100290.58;104769;1257;72087;-61
2023/10/05 09:01:27;;;;;;;5.50;3.40;;;;;;;18.88;89.33;100287.04;104367;1257;69290;-60
2023/10/05 09:04:12;;;;;;;8.80;3.60;;;;;;;19.00;88.19;100285.15;104673;1253;72818;-61
2023/10/05 09:06:44;;;;;;;5.10;3.30;;;;;;;19.08;83.70;100279.67;104710;1255;62055;-61
2023/10/05 09:09:19;;;;;;;9.90;3.40;;;;;;;19.14;85.18;100278.72;105741;1251;61394;-61
2023/10/05 09:11:47;;;;;;;5.10;3.30;;;;;;;19.27;84.02;100282.29;107741;1254;71796;-61
2023/10/05 09:14:23;;;;;;;5.10;3.20;;;;;;;19.33;82.79;100281.16;104513;1257;69377;-61
2023/10/05 09:16:57;;;;;;;8.50;3.70;;;;;;;19.34;79.77;100278.59;108239;1250;72450;-62
2023/10/05 09:19:26;;;;;;;7.90;3.60;;;;;;;19.40;79.12;100278.15;108530;1251;61678;-61
2023/10/05 09:24:31;;;;;;;6.80;2.90;;;;;;;19.38;75.82;100270.16;104688;1256;73563;-62
2023/10/05 09:27:12;;;;;;;5.40;3.30;;;;;;;19.42;77.05;100266.27;104317;1256;69457;-64
2023/10/05 09:29:47;;;;;;;4.60;3.00;;;;;;;19.50;76.93;100263.12;104237;1273;73439;-61
2023/10/05 09:32:22;;;;;;;5.70;3.20;;;;;;;19.56;76.92;100262.09;104578;1255;60462;-61
2023/10/05 09:34:50;;;;;;;5.40;3.50;;;;;;;19.61;75.99;100261.11;104546;1251;60141;-61
2023/10/05 09:37:18;;;;;;;6.80;3.50;;;;;;;19.62;74.53;100263.98;104584;1250;72893;-61
2023/10/05 09:39:49;;;;;;;7.20;3.70;;;;;;;19.66;74.09;100263.04;104628;1257;70638;-61
2023/10/05 09:42:25;;;;;;;8.10;3.30;;;;;;;19.66;73.39;100259.48;104413;1252;72460;-62
2023/10/05 09:44:58;;;;;;;7.70;3.40;;;;;;;19.66;72.85;100253.95;104311;1256;60096;-62
2023/10/05 09:47:27;;;;;;;8.80;3.30;;;;;;;19.67;72.36;100251.39;104282;1264;59762;-62
2023/10/05 09:49:58;;;;;;;6.90;3.00;;;;;;;19.69;72.48;100249.29;104518;1257;72843;-62
2023/10/05 09:52:35;;;;;;;7.50;3.50;;;;;;;19.72;72.25;100250.89;104438;1251;69218;-62
2023/10/05 09:55:07;;;;;;;8.40;3.90;;;;;;;19.69;70.67;100254.84;104633;1254;73563;-62
2023/10/05 09:57:41;;;;;;;14.50;4.40;;;;;;;19.67;71.05;100250.65;104679;1252;59751;-62
2023/10/05 10:00:55;;;;;;;6.90;3.20;;;;;;;19.69;70.40;100247.20;104745;1253;60035;-62
2023/10/05 10:03:01;;;;;;;6.80;2.90;;;;;;;19.72;70.33;100244.64;107058;1251;73842;-62
2023/10/05 10:06:08;;;;;;;6.20;3.10;;;;;;;19.77;70.73;100241.10;107584;1250;68579;-63
2023/10/05 10:08:42;;;;;;;6.50;3.00;;;;;;;19.83;69.14;100239.79;104864;1251;72625;-63
2023/10/05 10:11:18;;;;;;;6.40;3.20;;;;;;;19.81;68.12;100242.92;104598;1253;60430;-62
2023/10/05 10:14:01;;;;;;;5.40;2.80;;;;;;;19.82;67.63;100233.97;104271;1274;59773;-62
2023/10/05 10:16:33;;;;;;;7.00;3.10;;;;;;;19.88;68.18;100235.34;104579;1251;72862;-65
2023/10/05 10:19:19;;;;;;;10.50;3.80;;;;;;;19.93;67.94;100229.42;104859;1254;69935;-65
2023/10/05 10:21:53;;;;;;;8.50;3.40;;;;;;;20.01;68.52;100231.89;104960;1254;72487;-67
2023/10/05 10:24:21;;;;;;;7.50;3.40;;;;;;;20.13;68.40;100230.83;104310;1257;60250;-69
2023/10/05 10:26:53;;;;;;;;;;;;;;;20.20;66.37;100228.91;104581;1251;59756;-64
2023/10/05 10:29:23;;;;;;;5.70;3.60;;;;;;;20.27;66.10;100224.35;104523;1251;72079;-61
2023/10/05 10:32:18;;;;;;;7.00;3.30;;;;;;;20.33;66.95;100217.30;104785;1253;70110;-62
2023/10/05 10:34:50;;;;;;;6.40;3.00;;;;;;;20.45;65.21;100214.92;104312;1257;72504;-64
2023/10/05 10:37:39;;;;;;;7.60;3.50;;;;;;;20.52;64.40;100209.61;104483;1251;60411;-63
2023/10/05 10:40:25;;;;;;;5.10;2.80;;;;;;;20.64;65.13;100204.88;104465;1257;59623;-65
2023/10/05 10:45:40;;;;;;;6.80;3.90;;;;;;;20.73;64.13;100184.06;104196;1257;70215;-65
2023/10/05 10:48:20;;;;;;;4.90;3.20;;;;;;;20.78;63.00;100196.98;104278;1251;74950;-62
2023/10/05 10:50:55;;;;;;;5.90;2.90;;;;;;;20.84;60.82;100199.23;104364;1253;60123;-63
2023/10/05 10:53:30;;;;;;;7.80;3.60;;;;;;;20.83;60.63;100200.89;104342;1267;60482;-64
2023/10/05 10:56:04;;;;;;;5.60;3.20;;;;;;;20.81;60.29;100198.41;104449;1251;71897;-66
2023/10/05 10:58:34;;;;;;;6.90;3.30;;;;;;;20.84;60.38;100192.46;104480;1258;69494;-64
2023/10/05 11:01:03;;;;;;;4.50;3.20;;;;;;;20.87;60.63;100184.20;104386;1257;72310;-65
2023/10/05 11:03:32;;;;;;;6.90;3.60;;;;;;;20.98;60.57;100183.85;104247;1269;62741;-63
2023/10/05 11:06:04;;;;;;;4.80;3.10;;;;;;;21.08;59.07;100176.70;104369;1251;60318;-63
2023/10/05 11:08:40;;;;;;;7.80;3.30;;;;;;;21.10;56.70;100169.76;104434;1257;73306;-61
2023/10/05 11:11:19;;;;;;;9.60;3.60;;;;;;;20.97;55.31;100164.19;108454;1251;69184;-63
2023/10/05 11:13:57;;;;;;;6.50;3.10;;;;;;;21.02;56.41;100168.08;108459;1251;73134;-65
2023/10/05 11:16:43;;;;;;;5.50;2.80;;;;;;;21.03;56.70;100163.56;105339;1257;60976;-64
2023/10/05 11:19:24;;;;;;;;;;;;;;;21.05;57.00;100168.88;104633;1254;59799;-67
2023/10/05 11:22:06;;;;;;;7.20;3.30;;;;;;;21.03;57.20;100166.04;104371;1270;73538;-62
2023/10/05 11:24:39;;;;;;;9.00;3.60;;;;;;;21.00;56.78;100165.16;104611;1253;69236;-65
2023/10/05 11:27:14;;;;;;;6.50;3.50;;;;;;;21.02;57.17;100159.91;104499;1256;72962;-63
2023/10/05 11:29:48;;;;;;;9.80;3.80;;;;;;;21.06;57.78;100157.29;104384;1256;60785;-63
2023/10/05 11:32:25;;;;;;;5.50;3.20;;;;;;;21.11;57.62;100159.73;104405;1256;60895;-63
2023/10/05 11:35:13;;;;;;;6.20;3.50;;;;;;;21.16;57.25;100155.42;104255;1266;73047;-63
2023/10/05 11:37:58;;;;;;;8.40;4.10;;;;;;;21.16;57.06;100157.17;104601;1257;69199;-65
2023/10/05 11:40:31;;;;;;;10.10;4.20;;;;;;;21.21;57.34;100148.73;104441;1251;74466;-65
2023/10/05 11:43:06;;;;;;;7.50;4.00;;;;;;;21.21;56.76;100150.40;104493;1253;60521;-62
2023/10/05 11:45:48;;;;;;;7.90;4.70;;;;;;;21.25;57.06;100145.98;104264;1257;60444;-62
2023/10/05 11:48:20;;;;;;;6.50;4.70;;;;;;;21.26;57.14;100141.77;104512;1251;73684;-62
2023/10/05 11:50:51;;;;;;;11.70;5.30;;;;;;;21.29;57.23;100144.21;104419;1265;70517;-62
2023/10/05 11:53:24;;;;;;;9.90;5.90;;;;;;;21.27;56.74;100142.79;104451;1251;72227;-62
2023/10/05 11:55:52;;;;;;;8.00;5.00;;;;;;;21.22;56.60;100140.84;104506;1257;60534;-62
2023/10/05 11:58:22;;;;;;;10.30;6.20;;;;;;;21.19;56.32;100135.91;104398;1251;60527;-62
2023/10/05 12:00:51;;;;;;;9.20;6.50;;;;;;;21.16;56.27;100131.83;104768;1254;74361;-63